Time;durP1;ratioP1;P1;durP2;ratioP2;P2;SDS_P1;SDS_P2;PMS_P1;PMS_P2;Temp;Humidity;BMP_temperature;BMP_pressure;BME280_temperature;BME280_humidity;BME280_pressure;Samples;Min_cycle;Max_cycle;Signal;HPM_P1;HPM_P2
2022/09/06 00:00:34;;;;;;;4.70;2.72;;;;;;;;;;5156945;27;20353;-58
2022/09/06 00:03:00;;;;;;;3.03;2.58;;;;;;;;;;5157592;27;20106;-58
2022/09/06 00:05:29;;;;;;;3.03;2.53;;;;;;;;;;5156833;27;20034;-58
2022/09/06 00:07:58;;;;;;;5.00;2.65;;;;;;;;;;5156864;27;20145;-58
2022/09/06 00:10:24;;;;;;;3.75;3.00;;;;;;;;;;5157244;27;20041;-58
2022/09/06 00:12:50;;;;;;;5.13;2.67;;;;;;;;;;5157058;27;20155;-58
2022/09/06 00:15:16;;;;;;;4.22;2.13;;;;;;;;;;5157475;27;20450;-58
2022/09/06 00:17:43;;;;;;;2.92;2.40;;;;;;;;;;5156622;27;20026;-58
2022/09/06 00:20:10;;;;;;;3.78;2.55;;;;;;;;;;5157406;27;20019;-58
2022/09/06 00:22:37;;;;;;;3.47;2.38;;;;;;;;;;5156755;27;20095;-58
2022/09/06 00:25:05;;;;;;;5.63;2.60;;;;;;;;;;5156793;27;20038;-58
2022/09/06 00:27:32;;;;;;;6.10;3.08;;;;;;;;;;5156425;27;20025;-58
2022/09/06 00:29:58;;;;;;;3.67;2.58;;;;;;;;;;5156400;27;20508;-58
2022/09/06 00:32:24;;;;;;;5.00;2.33;;;;;;;;;;5156294;27;20027;-58
2022/09/06 00:34:50;;;;;;;3.92;2.63;;;;;;;;;;5156329;27;20015;-58
2022/09/06 00:37:16;;;;;;;6.90;3.60;;;;;;;;;;5156224;27;20543;-58
2022/09/06 00:39:42;;;;;;;8.73;3.13;;;;;;;;;;5156240;27;20026;-58
2022/09/06 00:42:08;;;;;;;2.88;2.33;;;;;;;;;;5156184;27;20098;-58
2022/09/06 00:44:34;;;;;;;7.15;3.13;;;;;;;;;;5156298;27;20521;-58
2022/09/06 00:47:01;;;;;;;3.65;2.42;;;;;;;;;;5156018;27;20023;-58
2022/09/06 00:49:45;;;;;;;2.70;2.25;;;;;;;;;;5156372;27;20305;-58
2022/09/06 00:52:13;;;;;;;4.22;3.10;;;;;;;;;;5155722;27;20058;-58
2022/09/06 00:54:39;;;;;;;4.30;3.05;;;;;;;;;;5156186;27;20034;-58
2022/09/06 00:57:05;;;;;;;4.18;2.92;;;;;;;;;;5156102;27;20356;-58
2022/09/06 00:59:33;;;;;;;5.85;2.95;;;;;;;;;;5156033;27;20082;-58
2022/09/06 01:01:59;;;;;;;4.35;2.72;;;;;;;;;;5155816;27;20350;-58
2022/09/06 01:04:26;;;;;;;4.38;3.08;;;;;;;;;;5155666;27;20061;-58
2022/09/06 01:06:55;;;;;;;5.00;3.60;;;;;;;;;;5155999;27;20435;-58
2022/09/06 01:09:33;;;;;;;3.28;2.92;;;;;;;;;;5155634;27;20412;-58
2022/09/06 01:12:18;;;;;;;4.03;3.28;;;;;;;;;;5155649;27;20023;-58
2022/09/06 01:14:53;;;;;;;4.25;2.78;;;;;;;;;;5155929;27;20034;-58
2022/09/06 01:17:19;;;;;;;4.97;2.92;;;;;;;;;;5155230;27;20472;-58
2022/09/06 01:19:55;;;;;;;4.63;3.10;;;;;;;;;;5155377;27;20022;-58
2022/09/06 01:22:39;;;;;;;4.50;2.78;;;;;;;;;;5155519;27;20018;-58
2022/09/06 01:25:24;;;;;;;3.60;3.05;;;;;;;;;;5155928;27;20078;-58
2022/09/06 01:27:59;;;;;;;4.30;3.13;;;;;;;;;;5156172;27;20027;-58
2022/09/06 01:30:25;;;;;;;3.53;2.55;;;;;;;;;;5156415;27;20022;-58
2022/09/06 01:33:00;;;;;;;5.25;3.42;;;;;;;;;;5155393;27;20026;-58
2022/09/06 01:35:29;;;;;;;5.03;3.17;;;;;;;;;;5155920;27;20019;-58
2022/09/06 01:37:56;;;;;;;5.88;3.60;;;;;;;;;;5155222;27;20394;-58
2022/09/06 01:40:22;;;;;;;4.70;3.53;;;;;;;;;;5155257;27;20022;-58
2022/09/06 01:42:49;;;;;;;6.15;4.00;;;;;;;;;;5155709;27;20019;-58
2022/09/06 01:45:19;;;;;;;4.10;3.30;;;;;;;;;;5155094;27;20030;-58
2022/09/06 01:48:00;;;;;;;9.48;3.97;;;;;;;;;;5155150;27;20095;-58
2022/09/06 01:50:32;;;;;;;3.50;3.13;;;;;;;;;;5154977;27;20027;-57
2022/09/06 01:53:21;;;;;;;5.10;3.90;;;;;;;;;;5155498;27;20102;-58
2022/09/06 01:56:01;;;;;;;4.40;2.93;;;;;;;;;;5155983;27;20030;-58
2022/09/06 01:58:38;;;;;;;5.88;3.38;;;;;;;;;;5155954;27;20119;-58
2022/09/06 02:01:20;;;;;;;6.13;3.75;;;;;;;;;;5155144;27;20082;-58
2022/09/06 02:03:45;;;;;;;8.27;3.45;;;;;;;;;;5156894;27;20049;-58
2022/09/06 02:06:14;;;;;;;4.82;3.75;;;;;;;;;;5159170;27;20452;-58
2022/09/06 02:08:47;;;;;;;7.75;2.97;;;;;;;;;;5158797;27;20483;-58
2022/09/06 02:11:15;;;;;;;4.50;2.85;;;;;;;;;;5159011;27;20087;-58
2022/09/06 02:13:44;;;;;;;5.22;3.72;;;;;;;;;;5159064;27;20030;-58
2022/09/06 02:16:10;;;;;;;5.60;3.53;;;;;;;;;;5158943;27;20023;-58
2022/09/06 02:18:43;;;;;;;4.07;3.45;;;;;;;;;;5159392;27;20026;-58
2022/09/06 02:21:12;;;;;;;3.45;3.00;;;;;;;;;;5158543;27;20487;-58
2022/09/06 02:23:39;;;;;;;4.53;3.28;;;;;;;;;;5159169;27;20033;-58
2022/09/06 02:26:12;;;;;;;7.97;3.78;;;;;;;;;;5158724;27;20039;-58
2022/09/06 02:28:38;;;;;;;5.07;3.67;;;;;;;;;;5158744;27;20052;-58
2022/09/06 02:31:08;;;;;;;5.68;3.05;;;;;;;;;;5158725;27;20015;-58
2022/09/06 02:33:35;;;;;;;6.13;3.83;;;;;;;;;;5159251;27;20368;-58
2022/09/06 02:36:08;;;;;;;4.95;3.25;;;;;;;;;;5158980;27;20421;-58
2022/09/06 02:38:36;;;;;;;4.18;3.20;;;;;;;;;;5159203;27;20027;-58
2022/09/06 02:41:03;;;;;;;4.25;3.05;;;;;;;;;;5158627;27;20029;-58
2022/09/06 02:43:28;;;;;;;4.25;2.85;;;;;;;;;;5158641;27;20015;-58
2022/09/06 02:45:55;;;;;;;3.50;2.78;;;;;;;;;;5158903;27;20030;-58
2022/09/06 02:48:21;;;;;;;3.60;2.72;;;;;;;;;;5158159;27;20027;-58
2022/09/06 02:50:47;;;;;;;5.25;2.72;;;;;;;;;;5158804;27;20043;-58
2022/09/06 02:53:14;;;;;;;4.75;3.40;;;;;;;;;;5158338;27;20416;-58
2022/09/06 02:55:40;;;;;;;4.25;2.83;;;;;;;;;;5158262;27;20079;-58
2022/09/06 02:58:09;;;;;;;3.63;2.33;;;;;;;;;;5158539;27;20019;-58
2022/09/06 03:00:36;;;;;;;5.03;3.53;;;;;;;;;;5158508;27;20019;-58
2022/09/06 03:03:02;;;;;;;3.65;3.10;;;;;;;;;;5156956;27;20110;-58
2022/09/06 03:05:29;;;;;;;4.70;2.92;;;;;;;;;;5158022;27;20035;-58
2022/09/06 03:07:55;;;;;;;5.25;3.38;;;;;;;;;;5158113;27;20404;-58
2022/09/06 03:10:22;;;;;;;8.00;3.90;;;;;;;;;;5158342;27;20094;-58
2022/09/06 03:12:48;;;;;;;5.32;3.45;;;;;;;;;;5157995;27;20102;-58
2022/09/06 03:15:15;;;;;;;5.68;3.58;;;;;;;;;;5158070;27;20487;-58
2022/09/06 03:17:41;;;;;;;6.95;4.45;;;;;;;;;;5157843;27;20107;-58
2022/09/06 03:20:08;;;;;;;5.28;4.53;;;;;;;;;;5158133;27;20027;-58
2022/09/06 03:22:40;;;;;;;8.25;3.95;;;;;;;;;;5157783;27;20023;-58
2022/09/06 03:25:07;;;;;;;4.07;3.30;;;;;;;;;;5158309;27;20041;-58
2022/09/06 03:27:33;;;;;;;4.65;4.05;;;;;;;;;;5157748;27;20027;-58
2022/09/06 03:29:59;;;;;;;5.57;4.18;;;;;;;;;;5158232;27;20356;-57
2022/09/06 03:32:25;;;;;;;4.70;4.28;;;;;;;;;;5157932;27;20030;-58
2022/09/06 03:34:51;;;;;;;4.47;4.07;;;;;;;;;;5157608;27;20051;-58
2022/09/06 03:37:18;;;;;;;5.35;4.13;;;;;;;;;;5157534;27;20026;-58
2022/09/06 03:39:44;;;;;;;7.07;5.18;;;;;;;;;;5157505;27;20026;-58
2022/09/06 03:42:10;;;;;;;4.88;4.05;;;;;;;;;;5158002;27;20091;-58
2022/09/06 03:44:36;;;;;;;5.15;4.57;;;;;;;;;;5157696;27;20063;-58
2022/09/06 03:47:02;;;;;;;10.05;4.30;;;;;;;;;;5157291;27;20029;-58
2022/09/06 03:49:28;;;;;;;4.85;4.35;;;;;;;;;;5157830;27;20015;-58
2022/09/06 03:51:54;;;;;;;6.13;4.80;;;;;;;;;;5157642;27;20038;-58
2022/09/06 03:54:20;;;;;;;5.93;4.82;;;;;;;;;;5157556;27;20034;-58
2022/09/06 03:56:46;;;;;;;6.22;5.35;;;;;;;;;;5157188;27;20019;-58
2022/09/06 03:59:12;;;;;;;9.93;4.68;;;;;;;;;;5157177;27;20023;-58
2022/09/06 04:01:38;;;;;;;6.88;4.70;;;;;;;;;;5157102;27;20027;-58
2022/09/06 04:04:04;;;;;;;6.40;4.10;;;;;;;;;;5156734;27;20061;-58
2022/09/06 04:06:30;;;;;;;5.22;4.30;;;;;;;;;;5157031;27;20030;-58
2022/09/06 04:08:56;;;;;;;3.63;3.28;;;;;;;;;;5156913;27;20030;-58
2022/09/06 04:11:22;;;;;;;5.65;4.03;;;;;;;;;;5157422;27;20022;-58
2022/09/06 04:13:48;;;;;;;7.07;5.28;;;;;;;;;;5156779;27;20498;-58
2022/09/06 04:16:16;;;;;;;7.65;4.75;;;;;;;;;;5156951;27;20023;-58
2022/09/06 04:18:42;;;;;;;8.10;6.05;;;;;;;;;;5157255;27;20019;-58
2022/09/06 04:21:08;;;;;;;6.40;5.47;;;;;;;;;;5156377;27;20045;-58
2022/09/06 04:23:34;;;;;;;4.97;4.47;;;;;;;;;;5157021;27;20019;-58
2022/09/06 04:26:00;;;;;;;6.28;5.22;;;;;;;;;;5155986;27;20058;-58
2022/09/06 04:28:26;;;;;;;6.03;4.57;;;;;;;;;;5157068;27;20026;-58
2022/09/06 04:30:53;;;;;;;4.93;4.30;;;;;;;;;;5156455;27;20062;-58
2022/09/06 04:33:19;;;;;;;9.02;4.72;;;;;;;;;;5156977;27;20520;-58
2022/09/06 04:35:52;;;;;;;6.45;5.60;;;;;;;;;;5156435;27;20065;-58
2022/09/06 04:38:18;;;;;;;9.98;5.68;;;;;;;;;;5156590;27;20029;-58
2022/09/06 04:40:44;;;;;;;5.47;4.90;;;;;;;;;;5156277;27;20069;-58
2022/09/06 04:43:10;;;;;;;11.25;5.53;;;;;;;;;;5156540;27;20027;-58
2022/09/06 04:45:36;;;;;;;6.18;5.57;;;;;;;;;;5156462;27;20141;-58
2022/09/06 04:48:02;;;;;;;6.25;5.18;;;;;;;;;;5156104;27;20019;-58
2022/09/06 04:50:28;;;;;;;5.28;4.75;;;;;;;;;;5156558;27;20027;-58
2022/09/06 04:52:54;;;;;;;5.97;4.45;;;;;;;;;;5156179;27;20025;-58
2022/09/06 04:55:20;;;;;;;7.10;5.55;;;;;;;;;;5156372;27;20112;-58
2022/09/06 04:57:46;;;;;;;6.15;4.55;;;;;;;;;;5156612;27;20015;-58
2022/09/06 05:00:12;;;;;;;5.13;4.63;;;;;;;;;;5156043;27;20030;-58
2022/09/06 05:02:38;;;;;;;5.72;4.63;;;;;;;;;;5155691;27;20019;-58
2022/09/06 05:05:04;;;;;;;14.48;5.28;;;;;;;;;;5156727;27;20183;-58
2022/09/06 05:07:30;;;;;;;5.07;4.65;;;;;;;;;;5156126;27;20524;-58
2022/09/06 05:09:56;;;;;;;6.15;4.55;;;;;;;;;;5155832;27;20027;-58
2022/09/06 05:12:22;;;;;;;6.10;5.53;;;;;;;;;;5156384;27;20019;-58
2022/09/06 05:14:48;;;;;;;6.10;4.82;;;;;;;;;;5156123;27;20061;-58
2022/09/06 05:17:14;;;;;;;4.95;4.40;;;;;;;;;;5155763;27;20019;-58
2022/09/06 05:19:40;;;;;;;7.22;4.97;;;;;;;;;;5155697;27;20030;-58
2022/09/06 05:22:06;;;;;;;5.15;4.65;;;;;;;;;;5155685;27;20518;-58
2022/09/06 05:24:32;;;;;;;5.80;4.80;;;;;;;;;;5156432;27;20066;-58
2022/09/06 05:27:02;;;;;;;6.13;4.85;;;;;;;;;;5155628;27;20027;-58
2022/09/06 05:29:28;;;;;;;6.25;5.32;;;;;;;;;;5156147;27;20023;-58
2022/09/06 05:31:54;;;;;;;6.43;5.38;;;;;;;;;;5155485;27;20055;-58
2022/09/06 05:34:20;;;;;;;8.13;5.07;;;;;;;;;;5155628;27;20030;-58
2022/09/06 05:36:46;;;;;;;7.80;4.97;;;;;;;;;;5155783;27;20019;-58
2022/09/06 05:39:12;;;;;;;9.60;5.03;;;;;;;;;;5157695;27;20046;-58
2022/09/06 05:41:38;;;;;;;5.90;4.85;;;;;;;;;;5160051;27;20394;-58
2022/09/06 05:44:04;;;;;;;7.05;5.72;;;;;;;;;;5159700;27;20026;-58
2022/09/06 05:46:30;;;;;;;6.38;5.22;;;;;;;;;;5160311;27;20101;-58
2022/09/06 05:49:03;;;;;;;5.65;4.43;;;;;;;;;;5159484;27;20045;-58
2022/09/06 05:51:30;;;;;;;7.38;5.93;;;;;;;;;;5159775;27;20395;-58
2022/09/06 05:53:56;;;;;;;5.10;4.60;;;;;;;;;;5160098;27;20023;-58
2022/09/06 05:56:22;;;;;;;5.40;4.88;;;;;;;;;;5159260;27;20372;-57
2022/09/06 05:58:48;;;;;;;4.93;4.43;;;;;;;;;;5159394;27;20083;-58
2022/09/06 06:01:25;;;;;;;5.82;4.80;;;;;;;;;;5159385;27;20022;-58
2022/09/06 06:03:52;;;;;;;7.72;4.90;;;;;;;;;;5159646;27;20364;-58
2022/09/06 06:06:19;;;;;;;6.05;4.90;;;;;;;;;;5159199;27;20042;-58
2022/09/06 06:08:45;;;;;;;7.50;5.30;;;;;;;;;;5159209;27;20028;-58
2022/09/06 06:11:11;;;;;;;8.90;5.55;;;;;;;;;;5159554;27;20385;-58
2022/09/06 06:13:38;;;;;;;6.88;5.55;;;;;;;;;;5159203;27;20027;-58
2022/09/06 06:16:07;;;;;;;8.60;6.10;;;;;;;;;;5159289;27;20026;-58
2022/09/06 06:18:33;;;;;;;5.40;4.90;;;;;;;;;;5159084;27;20023;-58
2022/09/06 06:21:09;;;;;;;10.15;5.70;;;;;;;;;;5159080;27;20075;-58
2022/09/06 06:23:35;;;;;;;7.40;5.15;;;;;;;;;;5158941;27;20019;-58
2022/09/06 06:26:01;;;;;;;8.80;5.68;;;;;;;;;;5158891;27;20030;-58
2022/09/06 06:28:27;;;;;;;5.82;5.22;;;;;;;;;;5158139;27;20015;-58
2022/09/06 06:30:53;;;;;;;6.25;5.65;;;;;;;;;;5159333;27;20027;-58
2022/09/06 06:33:19;;;;;;;9.30;6.00;;;;;;;;;;5159184;27;20072;-58
2022/09/06 06:36:02;;;;;;;6.78;6.18;;;;;;;;;;5158733;27;20030;-58
2022/09/06 06:38:32;;;;;;;9.23;6.47;;;;;;;;;;5158673;27;20048;-58
2022/09/06 06:40:58;;;;;;;6.55;5.93;;;;;;;;;;5158644;27;20023;-58
2022/09/06 06:43:24;;;;;;;8.82;5.28;;;;;;;;;;5159420;27;20023;-58
2022/09/06 06:45:50;;;;;;;8.20;5.88;;;;;;;;;;5158360;27;20033;-58
2022/09/06 06:48:16;;;;;;;7.72;6.93;;;;;;;;;;5158626;27;20027;-58
2022/09/06 06:50:42;;;;;;;7.03;5.53;;;;;;;;;;5157942;27;21133;-58
2022/09/06 06:53:08;;;;;;;7.78;5.45;;;;;;;;;;5158700;27;20023;-58
2022/09/06 06:55:34;;;;;;;7.60;6.80;;;;;;;;;;5158624;27;20035;-58
2022/09/06 06:58:00;;;;;;;7.03;6.35;;;;;;;;;;5158279;27;20023;-58
2022/09/06 07:00:26;;;;;;;8.05;5.95;;;;;;;;;;5158575;27;20081;-58
2022/09/06 07:02:54;;;;;;;6.50;5.90;;;;;;;;;;5158593;27;20026;-58
2022/09/06 07:05:20;;;;;;;6.78;6.07;;;;;;;;;;5158064;27;20379;-58
2022/09/06 07:07:46;;;;;;;6.57;5.93;;;;;;;;;;5158810;27;20026;-58
2022/09/06 07:10:12;;;;;;;9.90;5.85;;;;;;;;;;5158548;27;20019;-58
2022/09/06 07:12:38;;;;;;;11.27;5.80;;;;;;;;;;5158023;27;20023;-58
2022/09/06 07:15:04;;;;;;;6.00;5.22;;;;;;;;;;5158594;27;20029;-58
2022/09/06 07:17:30;;;;;;;5.97;5.18;;;;;;;;;;5158213;27;20022;-58
2022/09/06 07:19:56;;;;;;;6.57;5.93;;;;;;;;;;5157499;27;20045;-58
2022/09/06 07:22:22;;;;;;;7.65;5.47;;;;;;;;;;5157900;27;20025;-58
2022/09/06 07:24:48;;;;;;;6.38;5.78;;;;;;;;;;5157807;27;20034;-58
2022/09/06 07:27:14;;;;;;;5.13;4.63;;;;;;;;;;5157742;27;20054;-58
2022/09/06 07:29:40;;;;;;;6.30;5.32;;;;;;;;;;5157721;27;20030;-58
2022/09/06 07:32:06;;;;;;;8.00;5.20;;;;;;;;;;5157662;27;20452;-58
2022/09/06 07:34:36;;;;;;;9.23;4.93;;;;;;;;;;5157988;27;20065;-58
2022/09/06 07:37:02;;;;;;;8.00;5.68;;;;;;;;;;5157845;27;20531;-58
2022/09/06 07:39:28;;;;;;;6.85;5.05;;;;;;;;;;5157525;27;20058;-58
2022/09/06 07:41:54;;;;;;;6.80;6.00;;;;;;;;;;5157501;27;20031;-58
2022/09/06 07:44:20;;;;;;;6.80;4.70;;;;;;;;;;5157698;27;20031;-58
2022/09/06 07:46:46;;;;;;;5.88;4.82;;;;;;;;;;5157214;27;20099;-58
2022/09/06 07:49:12;;;;;;;6.55;4.95;;;;;;;;;;5157385;27;20027;-58
2022/09/06 07:51:38;;;;;;;6.95;5.18;;;;;;;;;;5157468;27;20046;-58
2022/09/06 07:54:05;;;;;;;6.10;4.70;;;;;;;;;;5157090;27;20505;-58
2022/09/06 07:56:31;;;;;;;11.02;4.32;;;;;;;;;;5157581;27;20356;-58
2022/09/06 07:58:57;;;;;;;6.90;4.20;;;;;;;;;;5157080;27;20030;-58
2022/09/06 08:01:34;;;;;;;5.78;4.20;;;;;;;;;;5156153;27;20110;-58
2022/09/06 08:04:00;;;;;;;6.93;4.10;;;;;;;;;;5157182;27;20109;-58
2022/09/06 08:06:26;;;;;;;4.93;3.65;;;;;;;;;;5156956;27;20098;-58
2022/09/06 08:08:53;;;;;;;6.13;4.00;;;;;;;;;;5156904;27;20117;-58
2022/09/06 08:11:19;;;;;;;4.57;3.72;;;;;;;;;;5156890;27;20023;-58
2022/09/06 08:13:49;;;;;;;4.63;3.58;;;;;;;;;;5157422;27;20023;-58
2022/09/06 08:16:15;;;;;;;5.97;3.80;;;;;;;;;;5157004;27;20038;-58
2022/09/06 08:18:41;;;;;;;4.93;3.83;;;;;;;;;;5157225;27;20027;-58
2022/09/06 08:21:12;;;;;;;3.90;3.05;;;;;;;;;;5157199;27;20023;-58
2022/09/06 08:23:41;;;;;;;10.27;3.30;;;;;;;;;;5156741;27;20022;-58
2022/09/06 08:26:07;;;;;;;5.07;3.55;;;;;;;;;;5156744;27;20039;-58
2022/09/06 08:28:33;;;;;;;5.43;3.65;;;;;;;;;;5157022;27;20506;-58
2022/09/06 08:31:09;;;;;;;3.97;3.15;;;;;;;;;;5156694;27;20030;-57
2022/09/06 08:33:36;;;;;;;6.53;3.58;;;;;;;;;;5156797;27;20050;-58
2022/09/06 08:36:02;;;;;;;3.80;2.92;;;;;;;;;;5156992;27;20025;-58
2022/09/06 08:38:28;;;;;;;3.17;2.80;;;;;;;;;;5156399;27;20367;-58
2022/09/06 08:40:55;;;;;;;3.45;3.00;;;;;;;;;;5156303;27;20423;-58
2022/09/06 08:43:21;;;;;;;5.30;3.35;;;;;;;;;;5156649;27;20030;-58
2022/09/06 08:45:50;;;;;;;4.03;2.97;;;;;;;;;;5156156;27;20022;-58
2022/09/06 08:48:16;;;;;;;4.80;3.00;;;;;;;;;;5155852;27;20022;-58
2022/09/06 08:50:46;;;;;;;3.30;2.92;;;;;;;;;;5155868;27;20046;-58
2022/09/06 08:53:19;;;;;;;7.93;2.72;;;;;;;;;;5156686;27;20444;-58
2022/09/06 08:56:03;;;;;;;5.72;3.10;;;;;;;;;;5156067;27;20098;-58
2022/09/06 08:58:38;;;;;;;7.30;2.88;;;;;;;;;;5156018;27;20023;-58
2022/09/06 09:01:24;;;;;;;6.53;2.75;;;;;;;;;;5156314;27;20022;-57
2022/09/06 09:03:52;;;;;;;3.83;2.85;;;;;;;;;;5155937;27;20041;-58
2022/09/06 09:06:18;;;;;;;4.68;3.10;;;;;;;;;;5155796;27;20376;-58
2022/09/06 09:08:47;;;;;;;5.97;3.45;;;;;;;;;;5156606;27;20011;-58
2022/09/06 09:11:20;;;;;;;4.15;2.92;;;;;;;;;;5155812;27;20060;-58
2022/09/06 09:13:46;;;;;;;6.07;3.88;;;;;;;;;;5155888;27;20027;-58
2022/09/06 09:16:15;;;;;;;4.47;3.15;;;;;;;;;;5156278;27;20023;-58
2022/09/06 09:18:47;;;;;;;7.18;3.78;;;;;;;;;;5155945;27;20019;-58
2022/09/06 09:21:13;;;;;;;3.83;2.97;;;;;;;;;;5156484;27;20076;-58
2022/09/06 09:23:39;;;;;;;4.35;2.80;;;;;;;;;;5156206;27;20019;-58
2022/09/06 09:26:09;;;;;;;4.75;3.50;;;;;;;;;;5155586;27;20031;-58
2022/09/06 09:28:35;;;;;;;3.95;3.03;;;;;;;;;;5155777;27;20047;-58
2022/09/06 09:31:01;;;;;;;7.28;3.13;;;;;;;;;;5156122;27;20022;-58
2022/09/06 09:33:34;;;;;;;5.55;3.17;;;;;;;;;;5156400;27;20053;-58
2022/09/06 09:36:01;;;;;;;6.70;2.72;;;;;;;;;;5155530;27;20054;-58
2022/09/06 09:38:32;;;;;;;4.05;2.88;;;;;;;;;;5156083;27;20035;-58
2022/09/06 09:41:02;;;;;;;4.70;2.90;;;;;;;;;;5155831;27;20472;-58
2022/09/06 09:43:39;;;;;;;6.53;2.58;;;;;;;;;;5156068;27;20047;-58
2022/09/06 09:46:23;;;;;;;7.95;3.80;;;;;;;;;;5155529;27;20056;-58
2022/09/06 09:49:08;;;;;;;7.95;2.78;;;;;;;;;;5155703;27;20050;-58
2022/09/06 09:51:41;;;;;;;7.55;3.25;;;;;;;;;;5155569;27;20504;-58
2022/09/06 09:54:09;;;;;;;6.57;2.92;;;;;;;;;;5156149;27;20019;-58
2022/09/06 09:56:38;;;;;;;5.43;2.53;;;;;;;;;;5155215;27;20026;-58
2022/09/06 09:59:07;;;;;;;4.25;3.00;;;;;;;;;;5155287;27;20083;-58
2022/09/06 10:01:33;;;;;;;4.65;2.78;;;;;;;;;;5155234;27;20419;-58
2022/09/06 10:04:01;;;;;;;7.25;3.05;;;;;;;;;;5156070;27;20023;-58
2022/09/06 10:06:27;;;;;;;6.53;3.55;;;;;;;;;;5155426;27;20030;-58
2022/09/06 10:08:53;;;;;;;7.00;2.33;;;;;;;;;;5154923;27;20577;-58
2022/09/06 10:11:37;;;;;;;6.25;2.58;;;;;;;;;;5155779;27;20043;-58
2022/09/06 10:14:24;;;;;;;5.60;2.22;;;;;;;;;;5155151;27;20022;-58
2022/09/06 10:16:51;;;;;;;6.25;3.15;;;;;;;;;;5155459;27;20101;-58
2022/09/06 10:19:30;;;;;;;8.60;2.95;;;;;;;;;;5155123;27;20466;-58
2022/09/06 10:21:59;;;;;;;4.70;2.95;;;;;;;;;;5155454;27;20022;-58
2022/09/06 10:24:34;;;;;;;5.80;2.83;;;;;;;;;;5156351;27;20368;-58
2022/09/06 10:27:01;;;;;;;9.35;3.40;;;;;;;;;;5159033;27;20015;-58
2022/09/06 10:29:42;;;;;;;5.35;2.58;;;;;;;;;;5159470;27;20023;-58
2022/09/06 10:32:17;;;;;;;3.90;2.92;;;;;;;;;;5158851;27;20019;-58
2022/09/06 10:34:51;;;;;;;7.25;3.00;;;;;;;;;;5159623;27;20034;-58
2022/09/06 10:37:25;;;;;;;8.05;3.13;;;;;;;;;;5159225;27;20077;-58
2022/09/06 10:40:08;;;;;;;5.68;2.80;;;;;;;;;;5158938;27;20137;-58
2022/09/06 10:42:37;;;;;;;6.38;3.10;;;;;;;;;;5158969;27;20023;-58
2022/09/06 10:45:22;;;;;;;8.07;3.20;;;;;;;;;;5158890;27;20030;-58
2022/09/06 10:48:08;;;;;;;3.88;2.83;;;;;;;;;;5158789;27;20053;-58
2022/09/06 10:50:53;;;;;;;3.53;2.63;;;;;;;;;;5158423;27;20019;-58
2022/09/06 10:53:22;;;;;;;2.60;2.10;;;;;;;;;;5158483;27;20023;-58
2022/09/06 10:55:52;;;;;;;4.07;2.72;;;;;;;;;;5158774;27;20087;-58
2022/09/06 10:58:26;;;;;;;4.03;2.28;;;;;;;;;;5158437;27;20014;-58
2022/09/06 11:00:52;;;;;;;11.00;3.33;;;;;;;;;;5158736;27;20025;-58
2022/09/06 11:03:23;;;;;;;5.32;3.45;;;;;;;;;;5158381;27;20483;-58
2022/09/06 11:05:52;;;;;;;6.10;3.40;;;;;;;;;;5158563;27;20109;-58
2022/09/06 11:08:18;;;;;;;4.88;3.10;;;;;;;;;;5158708;27;20019;-58
2022/09/06 11:10:46;;;;;;;5.20;3.15;;;;;;;;;;5158402;27;20066;-58
2022/09/06 11:13:16;;;;;;;7.90;3.13;;;;;;;;;;5158139;27;20079;-58
2022/09/06 11:15:47;;;;;;;7.07;3.47;;;;;;;;;;5157992;27;20155;-58
2022/09/06 11:18:36;;;;;;;9.68;3.45;;;;;;;;;;5158690;27;20038;-58
2022/09/06 11:21:25;;;;;;;4.00;3.05;;;;;;;;;;5149762;27;20361;-58
2022/09/06 11:23:53;;;;;;;7.40;2.97;;;;;;;;;;5157240;27;20356;-58
2022/09/06 11:26:36;;;;;;;6.40;2.70;;;;;;;;;;5157859;27;20079;-58
2022/09/06 11:29:09;;;;;;;4.00;2.85;;;;;;;;;;5158591;27;20106;-58
2022/09/06 11:31:49;;;;;;;4.30;3.17;;;;;;;;;;5157663;27;20070;-58
2022/09/06 11:34:15;;;;;;;;;;;;;;;;;;5158168;27;20118;-58
2022/09/06 11:36:45;;;;;;;5.70;2.83;;;;;;;;;;5157696;27;20374;-58
2022/09/06 11:39:11;;;;;;;;;;;;;;;;;;5158326;27;20101;-58
2022/09/06 11:41:39;;;;;;;4.30;2.92;;;;;;;;;;5157533;27;19945;-58
2022/09/06 11:44:06;;;;;;;5.50;3.38;;;;;;;;;;5158350;27;20018;-58
2022/09/06 11:46:35;;;;;;;4.43;3.05;;;;;;;;;;5156185;27;20031;-58
2022/09/06 11:49:05;;;;;;;6.47;3.13;;;;;;;;;;5157278;27;20030;-58
2022/09/06 11:51:32;;;;;;;;;;;;;;;;;;5158172;27;20042;-58
2022/09/06 11:53:58;;;;;;;4.10;3.00;;;;;;;;;;5157291;27;19902;-58
2022/09/06 11:56:39;;;;;;;5.60;2.80;;;;;;;;;;5157656;27;20055;-58
2022/09/06 11:59:17;;;;;;;3.60;2.38;;;;;;;;;;5157247;27;20022;-58
2022/09/06 12:01:55;;;;;;;4.40;2.80;;;;;;;;;;5157096;27;20031;-58
2022/09/06 12:04:22;;;;;;;6.28;3.42;;;;;;;;;;5157392;27;20029;-58
2022/09/06 12:07:07;;;;;;;3.03;2.55;;;;;;;;;;5157004;27;20025;-58
2022/09/06 12:09:35;;;;;;;7.80;2.55;;;;;;;;;;5156963;27;20030;-58
2022/09/06 12:12:01;;;;;;;9.05;3.20;;;;;;;;;;5157474;27;20015;-58
2022/09/06 12:14:48;;;;;;;16.75;2.97;;;;;;;;;;5157490;27;20042;-58
2022/09/06 12:17:13;;;;;;;5.05;3.60;;;;;;;;;;5157279;27;20023;-58
2022/09/06 12:19:53;;;;;;;3.55;2.40;;;;;;;;;;5156819;27;20022;-58
2022/09/06 12:22:28;;;;;;;6.60;3.47;;;;;;;;;;5157647;27;20433;-58
2022/09/06 12:24:56;;;;;;;3.53;2.78;;;;;;;;;;5157212;27;20069;-58
2022/09/06 12:27:26;;;;;;;4.97;3.08;;;;;;;;;;5156704;27;20420;-58
2022/09/06 12:29:53;;;;;;;3.97;2.90;;;;;;;;;;5156225;27;20530;-58
2022/09/06 12:32:21;;;;;;;5.60;2.92;;;;;;;;;;5156190;27;20525;-58
2022/09/06 12:34:47;;;;;;;6.32;2.85;;;;;;;;;;5156965;27;20023;-58
2022/09/06 12:37:13;;;;;;;4.50;3.15;;;;;;;;;;5156446;27;20027;-59
2022/09/06 12:39:40;;;;;;;5.30;2.67;;;;;;;;;;5156434;27;20027;-58
2022/09/06 12:42:15;;;;;;;4.80;2.28;;;;;;;;;;5157472;27;20075;-58
2022/09/06 12:44:42;;;;;;;3.95;2.33;;;;;;;;;;5157102;27;20322;-58
2022/09/06 12:47:19;;;;;;;6.82;2.92;;;;;;;;;;5156198;27;20038;-58
2022/09/06 12:49:45;;;;;;;6.38;2.40;;;;;;;;;;5156265;27;20031;-58
2022/09/06 12:52:18;;;;;;;5.03;3.47;;;;;;;;;;5156036;27;20160;-58
2022/09/06 12:54:48;;;;;;;6.38;2.00;;;;;;;;;;5156487;27;20023;-58
2022/09/06 12:57:17;;;;;;;3.10;2.05;;;;;;;;;;5156616;27;20103;-58
2022/09/06 12:59:47;;;;;;;7.18;3.28;;;;;;;;;;5155991;27;20053;-58
2022/09/06 13:02:16;;;;;;;6.15;2.22;;;;;;;;;;5156014;27;20051;-59
2022/09/06 13:04:43;;;;;;;3.63;2.20;;;;;;;;;;5156274;27;20027;-58
2022/09/06 13:07:11;;;;;;;6.45;2.58;;;;;;;;;;5155613;27;20479;-58
2022/09/06 13:09:38;;;;;;;3.70;2.58;;;;;;;;;;5155900;27;20102;-58
2022/09/06 13:12:07;;;;;;;3.80;2.63;;;;;;;;;;5155782;27;20031;-59
2022/09/06 13:14:34;;;;;;;3.25;2.65;;;;;;;;;;5155803;27;20546;-58
2022/09/06 13:17:00;;;;;;;5.57;3.72;;;;;;;;;;5155787;27;20106;-59
2022/09/06 13:19:31;;;;;;;4.55;3.13;;;;;;;;;;5156268;27;20111;-58
2022/09/06 13:21:58;;;;;;;4.10;2.45;;;;;;;;;;5156153;27;20023;-58
2022/09/06 13:24:25;;;;;;;5.93;2.88;;;;;;;;;;5156226;27;20057;-58
2022/09/06 13:26:52;;;;;;;6.75;2.63;;;;;;;;;;5155642;27;20018;-58
2022/09/06 13:29:18;;;;;;;5.35;2.88;;;;;;;;;;5155610;27;20019;-58
2022/09/06 13:31:48;;;;;;;8.52;3.30;;;;;;;;;;5156062;27;20033;-58
2022/09/06 13:34:24;;;;;;;5.95;3.40;;;;;;;;;;5155879;27;20143;-59
2022/09/06 13:36:51;;;;;;;3.70;2.60;;;;;;;;;;5155402;27;20420;-58
2022/09/06 13:39:36;;;;;;;3.55;2.78;;;;;;;;;;5155493;27;20018;-58
2022/09/06 13:42:22;;;;;;;5.15;3.30;;;;;;;;;;5155819;27;20089;-58
2022/09/06 13:44:49;;;;;;;4.97;2.78;;;;;;;;;;5144426;27;20039;-58
2022/09/06 13:47:15;;;;;;;6.60;3.58;;;;;;;;;;5155282;27;20023;-58
2022/09/06 13:49:42;;;;;;;8.50;3.30;;;;;;;;;;5155410;27;20026;-58
2022/09/06 13:52:07;;;;;;;5.70;3.70;;;;;;;;;;5155429;27;20047;-58
2022/09/06 13:54:35;;;;;;;10.35;2.88;;;;;;;;;;5155638;27;20371;-58
2022/09/06 13:57:01;;;;;;;7.43;4.30;;;;;;;;;;5155391;27;20030;-58
2022/09/06 13:59:27;;;;;;;4.03;3.33;;;;;;;;;;5155976;27;20363;-58
2022/09/06 14:02:08;;;;;;;6.25;3.13;;;;;;;;;;5159874;27;20037;-58
2022/09/06 14:04:35;;;;;;;4.68;3.33;;;;;;;;;;5159858;27;20023;-58
2022/09/06 14:07:01;;;;;;;9.15;3.13;;;;;;;;;;5159264;27;20069;-58
2022/09/06 14:09:28;;;;;;;7.00;3.50;;;;;;;;;;5159629;27;20023;-58
2022/09/06 14:11:54;;;;;;;4.53;2.92;;;;;;;;;;5159426;27;20030;-58
2022/09/06 14:14:20;;;;;;;5.40;3.08;;;;;;;;;;5159330;27;20448;-58
2022/09/06 14:16:46;;;;;;;8.52;3.35;;;;;;;;;;5159158;27;20023;-58
2022/09/06 14:19:12;;;;;;;6.57;3.67;;;;;;;;;;5159120;27;20030;-58
2022/09/06 14:21:39;;;;;;;5.22;2.70;;;;;;;;;;5159152;27;20030;-58
2022/09/06 14:24:05;;;;;;;4.38;2.72;;;;;;;;;;5159352;27;20037;-58
2022/09/06 14:26:31;;;;;;;4.90;3.17;;;;;;;;;;5158625;27;20492;-58
2022/09/06 14:28:57;;;;;;;4.70;2.92;;;;;;;;;;5158934;27;20075;-58
2022/09/06 14:31:24;;;;;;;3.22;2.45;;;;;;;;;;5158906;27;20057;-58
2022/09/06 14:33:51;;;;;;;4.82;3.55;;;;;;;;;;5158884;27;20019;-58
2022/09/06 14:36:18;;;;;;;3.80;2.50;;;;;;;;;;5159241;27;20409;-58
2022/09/06 14:38:45;;;;;;;6.70;3.00;;;;;;;;;;5158681;27;20030;-58
2022/09/06 14:41:14;;;;;;;3.83;1.95;;;;;;;;;;5158806;27;20097;-58
2022/09/06 14:43:44;;;;;;;6.77;3.63;;;;;;;;;;5159355;27;20023;-58
2022/09/06 14:46:12;;;;;;;7.93;2.72;;;;;;;;;;5158606;27;20026;-58
2022/09/06 14:48:38;;;;;;;3.60;2.00;;;;;;;;;;5158499;27;20027;-58
2022/09/06 14:51:09;;;;;;;4.63;2.70;;;;;;;;;;5158333;27;20091;-58
2022/09/06 14:53:37;;;;;;;5.65;2.47;;;;;;;;;;5158745;27;20023;-58